sensor_id;sensor_type;location;lat;lon;timestamp;P1;durP1;ratioP1;P2;durP2;ratioP2
45764;SDS011;31474;45.332;10.230;2023-09-12T00:00:55;50.05;;;36.00;;
45764;SDS011;31474;45.332;10.230;2023-09-12T00:03:22;50.20;;;36.30;;
45764;SDS011;31474;45.332;10.230;2023-09-12T00:05:55;45.10;;;34.60;;
45764;SDS011;31474;45.332;10.230;2023-09-12T00:08:21;49.13;;;35.33;;
45764;SDS011;31474;45.332;10.230;2023-09-12T00:10:57;43.55;;;35.38;;
45764;SDS011;31474;45.332;10.230;2023-09-12T00:13:36;43.05;;;32.72;;
45764;SDS011;31474;45.332;10.230;2023-09-12T00:16:03;42.40;;;33.40;;
45764;SDS011;31474;45.332;10.230;2023-09-12T00:18:30;45.83;;;33.78;;
45764;SDS011;31474;45.332;10.230;2023-09-12T00:20:56;42.13;;;32.53;;
45764;SDS011;31474;45.332;10.230;2023-09-12T00:23:22;48.00;;;33.05;;
45764;SDS011;31474;45.332;10.230;2023-09-12T00:25:49;44.25;;;32.15;;
45764;SDS011;31474;45.332;10.230;2023-09-12T00:28:16;38.95;;;31.45;;
45764;SDS011;31474;45.332;10.230;2023-09-12T00:30:42;43.55;;;33.80;;
45764;SDS011;31474;45.332;10.230;2023-09-12T00:33:08;44.53;;;31.38;;
45764;SDS011;31474;45.332;10.230;2023-09-12T00:35:33;44.55;;;30.85;;
45764;SDS011;31474;45.332;10.230;2023-09-12T00:37:59;43.90;;;33.38;;
45764;SDS011;31474;45.332;10.230;2023-09-12T00:40:25;43.03;;;31.25;;
45764;SDS011;31474;45.332;10.230;2023-09-12T00:42:50;42.67;;;32.35;;
45764;SDS011;31474;45.332;10.230;2023-09-12T00:45:16;37.88;;;29.48;;
45764;SDS011;31474;45.332;10.230;2023-09-12T00:47:42;39.60;;;30.55;;
45764;SDS011;31474;45.332;10.230;2023-09-12T00:50:08;40.83;;;31.83;;
45764;SDS011;31474;45.332;10.230;2023-09-12T00:52:35;43.13;;;29.88;;
45764;SDS011;31474;45.332;10.230;2023-09-12T00:55:03;43.20;;;30.23;;
45764;SDS011;31474;45.332;10.230;2023-09-12T00:57:29;40.35;;;29.98;;
45764;SDS011;31474;45.332;10.230;2023-09-12T00:59:57;39.72;;;30.75;;
45764;SDS011;31474;45.332;10.230;2023-09-12T01:02:24;37.00;;;28.27;;
45764;SDS011;31474;45.332;10.230;2023-09-12T01:04:50;38.83;;;28.23;;
45764;SDS011;31474;45.332;10.230;2023-09-12T01:07:16;37.38;;;28.92;;
45764;SDS011;31474;45.332;10.230;2023-09-12T01:09:42;35.17;;;29.33;;
45764;SDS011;31474;45.332;10.230;2023-09-12T01:12:08;34.33;;;27.15;;
45764;SDS011;31474;45.332;10.230;2023-09-12T01:14:33;38.70;;;28.88;;
45764;SDS011;31474;45.332;10.230;2023-09-12T01:17:00;37.38;;;29.00;;
45764;SDS011;31474;45.332;10.230;2023-09-12T01:19:27;40.25;;;30.67;;
45764;SDS011;31474;45.332;10.230;2023-09-12T01:30:08;40.53;;;30.33;;
45764;SDS011;31474;45.332;10.230;2023-09-12T01:32:35;44.60;;;32.00;;
45764;SDS011;31474;45.332;10.230;2023-09-12T01:35:02;36.63;;;30.75;;
45764;SDS011;31474;45.332;10.230;2023-09-12T01:37:31;41.85;;;33.08;;
45764;SDS011;31474;45.332;10.230;2023-09-12T01:39:57;41.95;;;31.67;;
45764;SDS011;31474;45.332;10.230;2023-09-12T01:42:23;40.92;;;32.42;;
45764;SDS011;31474;45.332;10.230;2023-09-12T01:44:54;41.08;;;33.65;;
45764;SDS011;31474;45.332;10.230;2023-09-12T01:47:21;38.78;;;31.15;;
45764;SDS011;31474;45.332;10.230;2023-09-12T01:49:49;39.13;;;32.95;;
45764;SDS011;31474;45.332;10.230;2023-09-12T01:52:19;43.28;;;31.63;;
45764;SDS011;31474;45.332;10.230;2023-09-12T01:54:45;39.00;;;32.78;;
45764;SDS011;31474;45.332;10.230;2023-09-12T01:57:13;41.50;;;31.70;;
45764;SDS011;31474;45.332;10.230;2023-09-12T01:59:39;38.72;;;31.50;;
45764;SDS011;31474;45.332;10.230;2023-09-12T02:02:05;37.95;;;32.60;;
45764;SDS011;31474;45.332;10.230;2023-09-12T02:04:32;45.25;;;33.25;;
45764;SDS011;31474;45.332;10.230;2023-09-12T02:06:57;39.30;;;31.95;;
45764;SDS011;31474;45.332;10.230;2023-09-12T02:09:23;42.00;;;33.13;;
45764;SDS011;31474;45.332;10.230;2023-09-12T02:11:50;42.90;;;31.95;;
45764;SDS011;31474;45.332;10.230;2023-09-12T02:14:16;38.20;;;31.27;;
45764;SDS011;31474;45.332;10.230;2023-09-12T02:16:43;40.45;;;33.53;;
45764;SDS011;31474;45.332;10.230;2023-09-12T02:19:09;40.20;;;32.40;;
45764;SDS011;31474;45.332;10.230;2023-09-12T02:21:35;39.58;;;32.25;;
45764;SDS011;31474;45.332;10.230;2023-09-12T02:24:01;40.42;;;33.67;;
45764;SDS011;31474;45.332;10.230;2023-09-12T02:26:26;46.58;;;34.40;;
45764;SDS011;31474;45.332;10.230;2023-09-12T02:28:52;44.50;;;32.10;;
45764;SDS011;31474;45.332;10.230;2023-09-12T02:31:18;37.78;;;31.98;;
45764;SDS011;31474;45.332;10.230;2023-09-12T02:33:43;38.10;;;31.27;;
45764;SDS011;31474;45.332;10.230;2023-09-12T02:36:10;42.33;;;32.10;;
45764;SDS011;31474;45.332;10.230;2023-09-12T02:38:35;37.92;;;31.63;;
45764;SDS011;31474;45.332;10.230;2023-09-12T02:41:01;40.25;;;32.03;;
45764;SDS011;31474;45.332;10.230;2023-09-12T02:43:27;42.03;;;32.35;;
45764;SDS011;31474;45.332;10.230;2023-09-12T02:45:53;40.58;;;33.47;;
45764;SDS011;31474;45.332;10.230;2023-09-12T02:48:19;39.08;;;32.45;;
45764;SDS011;31474;45.332;10.230;2023-09-12T02:50:45;36.92;;;32.08;;
45764;SDS011;31474;45.332;10.230;2023-09-12T02:53:10;41.10;;;33.47;;
45764;SDS011;31474;45.332;10.230;2023-09-12T02:55:39;39.65;;;31.88;;
45764;SDS011;31474;45.332;10.230;2023-09-12T02:58:06;39.97;;;32.47;;
45764;SDS011;31474;45.332;10.230;2023-09-12T03:00:31;42.78;;;33.97;;
45764;SDS011;31474;45.332;10.230;2023-09-12T03:02:57;39.83;;;32.83;;
45764;SDS011;31474;45.332;10.230;2023-09-12T03:05:23;38.00;;;31.15;;
45764;SDS011;31474;45.332;10.230;2023-09-12T03:07:48;39.08;;;31.48;;
45764;SDS011;31474;45.332;10.230;2023-09-12T03:10:14;38.75;;;32.42;;
45764;SDS011;31474;45.332;10.230;2023-09-12T03:12:40;41.45;;;31.60;;
45764;SDS011;31474;45.332;10.230;2023-09-12T03:15:06;41.42;;;30.45;;
45764;SDS011;31474;45.332;10.230;2023-09-12T03:17:32;43.83;;;30.85;;
45764;SDS011;31474;45.332;10.230;2023-09-12T03:19:57;36.80;;;28.98;;
45764;SDS011;31474;45.332;10.230;2023-09-12T03:22:23;40.70;;;30.85;;
45764;SDS011;31474;45.332;10.230;2023-09-12T03:24:49;40.03;;;31.58;;
45764;SDS011;31474;45.332;10.230;2023-09-12T03:27:15;41.95;;;31.40;;
45764;SDS011;31474;45.332;10.230;2023-09-12T03:29:40;35.25;;;30.52;;
45764;SDS011;31474;45.332;10.230;2023-09-12T03:32:06;37.40;;;29.75;;
45764;SDS011;31474;45.332;10.230;2023-09-12T03:34:31;44.25;;;31.90;;
45764;SDS011;31474;45.332;10.230;2023-09-12T03:36:57;41.33;;;32.35;;
45764;SDS011;31474;45.332;10.230;2023-09-12T03:39:23;41.15;;;33.13;;
45764;SDS011;31474;45.332;10.230;2023-09-12T03:41:49;41.90;;;32.20;;
45764;SDS011;31474;45.332;10.230;2023-09-12T03:44:14;44.15;;;33.78;;
45764;SDS011;31474;45.332;10.230;2023-09-12T03:46:40;46.00;;;33.45;;
45764;SDS011;31474;45.332;10.230;2023-09-12T03:49:05;44.42;;;34.17;;
45764;SDS011;31474;45.332;10.230;2023-09-12T03:51:31;41.85;;;33.38;;
45764;SDS011;31474;45.332;10.230;2023-09-12T03:53:59;40.40;;;33.45;;
45764;SDS011;31474;45.332;10.230;2023-09-12T03:56:25;42.38;;;32.33;;
45764;SDS011;31474;45.332;10.230;2023-09-12T03:58:51;44.72;;;33.47;;
45764;SDS011;31474;45.332;10.230;2023-09-12T04:01:16;43.35;;;33.70;;
45764;SDS011;31474;45.332;10.230;2023-09-12T04:03:42;46.28;;;35.28;;
45764;SDS011;31474;45.332;10.230;2023-09-12T04:06:12;40.95;;;33.40;;
45764;SDS011;31474;45.332;10.230;2023-09-12T04:08:38;45.75;;;34.85;;
45764;SDS011;31474;45.332;10.230;2023-09-12T04:11:03;46.70;;;36.17;;
45764;SDS011;31474;45.332;10.230;2023-09-12T04:13:29;46.65;;;35.60;;
45764;SDS011;31474;45.332;10.230;2023-09-12T04:15:55;42.92;;;35.10;;
45764;SDS011;31474;45.332;10.230;2023-09-12T04:18:21;46.58;;;35.72;;
45764;SDS011;31474;45.332;10.230;2023-09-12T04:20:46;41.60;;;33.28;;
45764;SDS011;31474;45.332;10.230;2023-09-12T04:23:12;48.45;;;35.30;;
45764;SDS011;31474;45.332;10.230;2023-09-12T04:25:38;41.60;;;34.53;;
45764;SDS011;31474;45.332;10.230;2023-09-12T04:28:07;48.80;;;35.13;;
45764;SDS011;31474;45.332;10.230;2023-09-12T04:30:33;45.75;;;36.45;;
45764;SDS011;31474;45.332;10.230;2023-09-12T04:33:00;44.15;;;34.45;;
45764;SDS011;31474;45.332;10.230;2023-09-12T04:35:26;47.70;;;37.63;;
45764;SDS011;31474;45.332;10.230;2023-09-12T04:37:51;48.15;;;34.20;;
45764;SDS011;31474;45.332;10.230;2023-09-12T04:40:17;41.03;;;34.40;;
45764;SDS011;31474;45.332;10.230;2023-09-12T04:42:43;47.70;;;34.50;;
45764;SDS011;31474;45.332;10.230;2023-09-12T04:45:08;45.53;;;35.50;;
45764;SDS011;31474;45.332;10.230;2023-09-12T04:47:34;45.75;;;37.28;;
45764;SDS011;31474;45.332;10.230;2023-09-12T04:50:00;51.00;;;36.65;;
45764;SDS011;31474;45.332;10.230;2023-09-12T04:52:26;47.45;;;37.67;;
45764;SDS011;31474;45.332;10.230;2023-09-12T04:54:52;51.75;;;35.03;;
45764;SDS011;31474;45.332;10.230;2023-09-12T04:57:18;47.95;;;37.13;;
45764;SDS011;31474;45.332;10.230;2023-09-12T04:59:43;45.45;;;35.92;;
45764;SDS011;31474;45.332;10.230;2023-09-12T05:02:09;45.10;;;35.33;;
45764;SDS011;31474;45.332;10.230;2023-09-12T05:04:35;41.25;;;34.85;;
45764;SDS011;31474;45.332;10.230;2023-09-12T05:07:00;42.72;;;33.92;;
45764;SDS011;31474;45.332;10.230;2023-09-12T05:09:26;41.60;;;35.53;;
45764;SDS011;31474;45.332;10.230;2023-09-12T05:11:51;42.47;;;32.50;;
45764;SDS011;31474;45.332;10.230;2023-09-12T05:14:17;41.85;;;35.47;;
45764;SDS011;31474;45.332;10.230;2023-09-12T05:16:43;42.92;;;34.95;;
45764;SDS011;31474;45.332;10.230;2023-09-12T05:19:08;47.33;;;34.72;;
45764;SDS011;31474;45.332;10.230;2023-09-12T05:21:34;43.92;;;34.92;;
45764;SDS011;31474;45.332;10.230;2023-09-12T05:23:59;43.35;;;34.97;;
45764;SDS011;31474;45.332;10.230;2023-09-12T05:26:25;44.15;;;36.33;;
45764;SDS011;31474;45.332;10.230;2023-09-12T05:28:51;51.72;;;38.15;;
45764;SDS011;31474;45.332;10.230;2023-09-12T05:31:17;48.67;;;38.33;;
45764;SDS011;31474;45.332;10.230;2023-09-12T05:33:43;50.67;;;37.97;;
45764;SDS011;31474;45.332;10.230;2023-09-12T05:36:09;47.38;;;38.65;;
45764;SDS011;31474;45.332;10.230;2023-09-12T05:38:34;48.88;;;38.05;;
45764;SDS011;31474;45.332;10.230;2023-09-12T05:41:00;51.63;;;38.53;;
45764;SDS011;31474;45.332;10.230;2023-09-12T05:43:25;48.53;;;38.30;;
45764;SDS011;31474;45.332;10.230;2023-09-12T05:45:51;47.53;;;37.65;;
45764;SDS011;31474;45.332;10.230;2023-09-12T05:48:17;55.33;;;40.22;;
45764;SDS011;31474;45.332;10.230;2023-09-12T05:50:43;53.00;;;38.08;;
45764;SDS011;31474;45.332;10.230;2023-09-12T05:53:09;53.22;;;39.20;;
45764;SDS011;31474;45.332;10.230;2023-09-12T05:55:35;48.33;;;38.28;;
45764;SDS011;31474;45.332;10.230;2023-09-12T05:58:02;53.83;;;38.90;;
45764;SDS011;31474;45.332;10.230;2023-09-12T06:00:30;50.13;;;39.47;;
45764;SDS011;31474;45.332;10.230;2023-09-12T06:02:56;47.67;;;38.47;;
45764;SDS011;31474;45.332;10.230;2023-09-12T06:05:23;48.65;;;39.42;;
45764;SDS011;31474;45.332;10.230;2023-09-12T06:07:48;49.33;;;36.95;;
45764;SDS011;31474;45.332;10.230;2023-09-12T06:10:14;49.03;;;37.35;;
45764;SDS011;31474;45.332;10.230;2023-09-12T06:12:40;47.78;;;37.67;;
45764;SDS011;31474;45.332;10.230;2023-09-12T06:15:05;49.55;;;38.20;;
45764;SDS011;31474;45.332;10.230;2023-09-12T06:17:31;45.35;;;37.58;;
45764;SDS011;31474;45.332;10.230;2023-09-12T06:19:57;49.58;;;38.08;;
45764;SDS011;31474;45.332;10.230;2023-09-12T06:22:23;46.00;;;36.40;;
45764;SDS011;31474;45.332;10.230;2023-09-12T06:24:51;49.63;;;36.33;;
45764;SDS011;31474;45.332;10.230;2023-09-12T06:27:18;46.20;;;36.53;;
45764;SDS011;31474;45.332;10.230;2023-09-12T06:29:44;50.47;;;36.53;;
45764;SDS011;31474;45.332;10.230;2023-09-12T06:32:13;53.03;;;36.45;;
45764;SDS011;31474;45.332;10.230;2023-09-12T06:34:42;47.28;;;35.25;;
45764;SDS011;31474;45.332;10.230;2023-09-12T06:37:08;50.28;;;35.50;;
45764;SDS011;31474;45.332;10.230;2023-09-12T06:39:35;47.72;;;35.65;;
45764;SDS011;31474;45.332;10.230;2023-09-12T06:42:01;41.42;;;33.78;;
45764;SDS011;31474;45.332;10.230;2023-09-12T06:44:27;46.42;;;35.53;;
45764;SDS011;31474;45.332;10.230;2023-09-12T06:46:52;46.95;;;34.35;;
45764;SDS011;31474;45.332;10.230;2023-09-12T06:49:18;43.13;;;34.15;;
45764;SDS011;31474;45.332;10.230;2023-09-12T06:51:44;39.47;;;32.95;;
45764;SDS011;31474;45.332;10.230;2023-09-12T06:54:09;45.75;;;33.88;;
45764;SDS011;31474;45.332;10.230;2023-09-12T06:56:35;42.17;;;31.60;;
45764;SDS011;31474;45.332;10.230;2023-09-12T06:59:03;43.20;;;33.45;;
45764;SDS011;31474;45.332;10.230;2023-09-12T07:01:29;44.28;;;32.97;;
45764;SDS011;31474;45.332;10.230;2023-09-12T07:03:55;39.58;;;29.95;;
45764;SDS011;31474;45.332;10.230;2023-09-12T07:06:21;38.95;;;30.48;;
45764;SDS011;31474;45.332;10.230;2023-09-12T07:08:47;33.78;;;29.13;;
45764;SDS011;31474;45.332;10.230;2023-09-12T07:11:13;39.15;;;29.70;;
45764;SDS011;31474;45.332;10.230;2023-09-12T07:13:39;35.55;;;27.20;;
45764;SDS011;31474;45.332;10.230;2023-09-12T07:16:05;35.00;;;26.48;;
45764;SDS011;31474;45.332;10.230;2023-09-12T07:18:31;35.47;;;26.70;;
45764;SDS011;31474;45.332;10.230;2023-09-12T07:21:00;31.70;;;25.95;;
45764;SDS011;31474;45.332;10.230;2023-09-12T07:23:27;37.45;;;25.35;;
45764;SDS011;31474;45.332;10.230;2023-09-12T07:25:54;31.58;;;24.65;;
45764;SDS011;31474;45.332;10.230;2023-09-12T07:28:22;33.92;;;26.83;;
45764;SDS011;31474;45.332;10.230;2023-09-12T07:30:49;36.92;;;28.20;;
45764;SDS011;31474;45.332;10.230;2023-09-12T07:33:14;33.90;;;27.52;;
45764;SDS011;31474;45.332;10.230;2023-09-12T07:35:40;32.42;;;28.27;;
45764;SDS011;31474;45.332;10.230;2023-09-12T07:38:06;39.30;;;29.42;;
45764;SDS011;31474;45.332;10.230;2023-09-12T07:40:31;34.97;;;27.52;;
45764;SDS011;31474;45.332;10.230;2023-09-12T07:42:57;34.88;;;27.70;;
45764;SDS011;31474;45.332;10.230;2023-09-12T07:45:23;39.63;;;28.80;;
45764;SDS011;31474;45.332;10.230;2023-09-12T07:47:48;34.15;;;28.02;;
45764;SDS011;31474;45.332;10.230;2023-09-12T07:50:14;35.60;;;26.83;;
45764;SDS011;31474;45.332;10.230;2023-09-12T07:52:40;31.77;;;27.20;;
45764;SDS011;31474;45.332;10.230;2023-09-12T07:55:06;33.45;;;27.25;;
45764;SDS011;31474;45.332;10.230;2023-09-12T07:57:32;32.10;;;25.67;;
45764;SDS011;31474;45.332;10.230;2023-09-12T07:59:59;33.38;;;25.95;;
45764;SDS011;31474;45.332;10.230;2023-09-12T08:02:25;36.95;;;27.35;;
45764;SDS011;31474;45.332;10.230;2023-09-12T08:04:51;34.10;;;28.17;;
45764;SDS011;31474;45.332;10.230;2023-09-12T08:07:18;33.50;;;24.77;;
45764;SDS011;31474;45.332;10.230;2023-09-12T08:09:47;31.50;;;26.08;;
45764;SDS011;31474;45.332;10.230;2023-09-12T08:12:18;34.83;;;26.75;;
45764;SDS011;31474;45.332;10.230;2023-09-12T08:14:44;31.35;;;26.05;;
45764;SDS011;31474;45.332;10.230;2023-09-12T08:17:11;33.50;;;26.92;;
45764;SDS011;31474;45.332;10.230;2023-09-12T08:19:37;37.65;;;25.83;;
45764;SDS011;31474;45.332;10.230;2023-09-12T08:22:03;33.03;;;26.63;;
45764;SDS011;31474;45.332;10.230;2023-09-12T08:24:28;31.45;;;25.85;;
45764;SDS011;31474;45.332;10.230;2023-09-12T08:26:54;33.25;;;25.60;;
45764;SDS011;31474;45.332;10.230;2023-09-12T08:29:20;34.28;;;25.83;;
45764;SDS011;31474;45.332;10.230;2023-09-12T08:31:46;33.90;;;25.30;;
45764;SDS011;31474;45.332;10.230;2023-09-12T08:34:14;34.13;;;25.02;;
45764;SDS011;31474;45.332;10.230;2023-09-12T08:36:40;32.30;;;25.67;;
45764;SDS011;31474;45.332;10.230;2023-09-12T08:39:06;35.78;;;25.15;;
45764;SDS011;31474;45.332;10.230;2023-09-12T08:41:34;35.67;;;25.10;;
45764;SDS011;31474;45.332;10.230;2023-09-12T08:44:00;29.17;;;24.55;;
45764;SDS011;31474;45.332;10.230;2023-09-12T08:46:26;31.40;;;24.92;;
45764;SDS011;31474;45.332;10.230;2023-09-12T08:48:55;29.25;;;24.45;;
45764;SDS011;31474;45.332;10.230;2023-09-12T08:51:22;33.75;;;25.92;;
45764;SDS011;31474;45.332;10.230;2023-09-12T08:53:49;28.63;;;25.52;;
45764;SDS011;31474;45.332;10.230;2023-09-12T08:56:15;28.52;;;23.67;;
45764;SDS011;31474;45.332;10.230;2023-09-12T08:58:42;30.42;;;25.45;;
45764;SDS011;31474;45.332;10.230;2023-09-12T09:01:08;33.58;;;26.08;;
45764;SDS011;31474;45.332;10.230;2023-09-12T09:03:38;32.28;;;24.20;;
45764;SDS011;31474;45.332;10.230;2023-09-12T09:06:06;39.72;;;23.67;;
45764;SDS011;31474;45.332;10.230;2023-09-12T09:08:34;30.90;;;24.92;;
45764;SDS011;31474;45.332;10.230;2023-09-12T09:11:00;31.25;;;24.42;;
45764;SDS011;31474;45.332;10.230;2023-09-12T09:13:28;33.80;;;26.42;;
45764;SDS011;31474;45.332;10.230;2023-09-12T09:16:10;32.83;;;24.60;;
45764;SDS011;31474;45.332;10.230;2023-09-12T09:21:23;32.67;;;27.02;;
45764;SDS011;31474;45.332;10.230;2023-09-12T09:23:51;31.10;;;26.77;;
45764;SDS011;31474;45.332;10.230;2023-09-12T09:26:18;34.67;;;25.77;;
45764;SDS011;31474;45.332;10.230;2023-09-12T09:28:44;31.63;;;25.98;;
45764;SDS011;31474;45.332;10.230;2023-09-12T09:31:10;35.55;;;26.17;;
45764;SDS011;31474;45.332;10.230;2023-09-12T09:33:37;31.55;;;26.23;;
45764;SDS011;31474;45.332;10.230;2023-09-12T09:36:06;32.95;;;26.67;;
45764;SDS011;31474;45.332;10.230;2023-09-12T09:38:34;35.95;;;26.48;;
45764;SDS011;31474;45.332;10.230;2023-09-12T09:41:00;32.80;;;27.42;;
45764;SDS011;31474;45.332;10.230;2023-09-12T09:43:29;33.63;;;25.38;;
45764;SDS011;31474;45.332;10.230;2023-09-12T09:45:57;32.20;;;25.55;;
45764;SDS011;31474;45.332;10.230;2023-09-12T09:48:23;30.20;;;26.20;;
45764;SDS011;31474;45.332;10.230;2023-09-12T09:50:52;32.78;;;26.85;;
45764;SDS011;31474;45.332;10.230;2023-09-12T09:53:21;37.03;;;25.92;;
45764;SDS011;31474;45.332;10.230;2023-09-12T09:58:55;29.75;;;25.55;;
45764;SDS011;31474;45.332;10.230;2023-09-12T10:01:28;30.92;;;24.85;;
45764;SDS011;31474;45.332;10.230;2023-09-12T10:03:59;32.95;;;24.58;;
45764;SDS011;31474;45.332;10.230;2023-09-12T10:06:26;32.58;;;25.45;;
45764;SDS011;31474;45.332;10.230;2023-09-12T10:08:53;31.65;;;26.30;;
45764;SDS011;31474;45.332;10.230;2023-09-12T10:11:23;32.78;;;25.80;;
45764;SDS011;31474;45.332;10.230;2023-09-12T10:13:52;33.58;;;24.63;;
45764;SDS011;31474;45.332;10.230;2023-09-12T10:16:20;38.33;;;24.10;;
45764;SDS011;31474;45.332;10.230;2023-09-12T10:21:38;34.10;;;23.38;;
45764;SDS011;31474;45.332;10.230;2023-09-12T10:24:20;30.38;;;23.05;;
45764;SDS011;31474;45.332;10.230;2023-09-12T10:26:48;30.75;;;26.15;;
45764;SDS011;31474;45.332;10.230;2023-09-12T10:29:15;28.83;;;23.42;;
45764;SDS011;31474;45.332;10.230;2023-09-12T10:31:41;31.73;;;24.88;;
45764;SDS011;31474;45.332;10.230;2023-09-12T10:34:08;36.72;;;26.75;;
45764;SDS011;31474;45.332;10.230;2023-09-12T10:36:38;30.27;;;24.45;;
45764;SDS011;31474;45.332;10.230;2023-09-12T10:39:06;31.23;;;23.85;;
45764;SDS011;31474;45.332;10.230;2023-09-12T10:41:33;32.13;;;24.27;;
45764;SDS011;31474;45.332;10.230;2023-09-12T10:44:02;29.05;;;24.20;;
45764;SDS011;31474;45.332;10.230;2023-09-12T10:46:38;29.08;;;24.25;;
45764;SDS011;31474;45.332;10.230;2023-09-12T10:49:08;32.25;;;25.08;;
45764;SDS011;31474;45.332;10.230;2023-09-12T10:51:43;32.20;;;24.25;;
45764;SDS011;31474;45.332;10.230;2023-09-12T10:54:14;31.80;;;25.63;;
45764;SDS011;31474;45.332;10.230;2023-09-12T10:56:41;34.63;;;23.30;;
45764;SDS011;31474;45.332;10.230;2023-09-12T10:59:09;31.33;;;22.90;;
45764;SDS011;31474;45.332;10.230;2023-09-12T11:01:37;29.05;;;23.13;;
45764;SDS011;31474;45.332;10.230;2023-09-12T11:06:45;27.05;;;21.08;;
45764;SDS011;31474;45.332;10.230;2023-09-12T11:11:48;26.25;;;21.65;;
45764;SDS011;31474;45.332;10.230;2023-09-12T11:14:30;30.40;;;20.98;;
45764;SDS011;31474;45.332;10.230;2023-09-12T11:17:39;19.98;;;17.15;;
45764;SDS011;31474;45.332;10.230;2023-09-12T11:19:47;22.13;;;18.30;;
45764;SDS011;31474;45.332;10.230;2023-09-12T11:22:29;24.45;;;20.27;;
45764;SDS011;31474;45.332;10.230;2023-09-12T11:27:44;25.38;;;18.42;;
45764;SDS011;31474;45.332;10.230;2023-09-12T11:30:19;21.67;;;17.50;;
45764;SDS011;31474;45.332;10.230;2023-09-12T11:32:47;26.40;;;16.67;;
45764;SDS011;31474;45.332;10.230;2023-09-12T11:35:18;18.52;;;16.48;;
45764;SDS011;31474;45.332;10.230;2023-09-12T11:37:49;17.70;;;13.20;;
45764;SDS011;31474;45.332;10.230;2023-09-12T11:40:23;17.52;;;14.55;;
45764;SDS011;31474;45.332;10.230;2023-09-12T11:42:50;20.33;;;15.45;;
45764;SDS011;31474;45.332;10.230;2023-09-12T11:45:20;19.52;;;16.45;;
45764;SDS011;31474;45.332;10.230;2023-09-12T11:47:47;23.88;;;16.23;;
45764;SDS011;31474;45.332;10.230;2023-09-12T11:52:59;21.70;;;13.82;;
45764;SDS011;31474;45.332;10.230;2023-09-12T11:55:24;26.92;;;17.80;;
45764;SDS011;31474;45.332;10.230;2023-09-12T11:57:51;24.60;;;17.42;;
45764;SDS011;31474;45.332;10.230;2023-09-12T12:00:17;22.42;;;17.25;;
45764;SDS011;31474;45.332;10.230;2023-09-12T12:02:44;29.98;;;19.60;;
45764;SDS011;31474;45.332;10.230;2023-09-12T12:05:11;28.42;;;18.42;;
45764;SDS011;31474;45.332;10.230;2023-09-12T12:07:37;21.25;;;16.60;;
45764;SDS011;31474;45.332;10.230;2023-09-12T12:10:04;25.02;;;18.30;;
45764;SDS011;31474;45.332;10.230;2023-09-12T12:12:30;18.13;;;15.38;;
45764;SDS011;31474;45.332;10.230;2023-09-12T12:14:55;13.77;;;12.38;;
45764;SDS011;31474;45.332;10.230;2023-09-12T12:17:21;14.93;;;10.73;;
45764;SDS011;31474;45.332;10.230;2023-09-12T12:19:47;14.88;;;11.60;;
45764;SDS011;31474;45.332;10.230;2023-09-12T12:22:13;20.45;;;15.38;;
45764;SDS011;31474;45.332;10.230;2023-09-12T12:24:40;17.73;;;13.82;;
45764;SDS011;31474;45.332;10.230;2023-09-12T12:27:16;15.20;;;13.45;;
45764;SDS011;31474;45.332;10.230;2023-09-12T12:29:42;19.45;;;14.95;;
45764;SDS011;31474;45.332;10.230;2023-09-12T12:32:09;23.85;;;16.42;;
45764;SDS011;31474;45.332;10.230;2023-09-12T12:34:35;20.17;;;16.65;;
45764;SDS011;31474;45.332;10.230;2023-09-12T12:37:01;19.08;;;15.73;;
45764;SDS011;31474;45.332;10.230;2023-09-12T12:39:28;20.98;;;15.15;;
45764;SDS011;31474;45.332;10.230;2023-09-12T12:41:54;21.98;;;16.00;;
45764;SDS011;31474;45.332;10.230;2023-09-12T12:44:20;21.42;;;17.00;;
45764;SDS011;31474;45.332;10.230;2023-09-12T12:46:54;23.65;;;18.25;;
45764;SDS011;31474;45.332;10.230;2023-09-12T12:49:20;22.60;;;16.40;;
45764;SDS011;31474;45.332;10.230;2023-09-12T12:51:46;19.45;;;15.60;;
45764;SDS011;31474;45.332;10.230;2023-09-12T12:54:13;20.85;;;15.65;;
45764;SDS011;31474;45.332;10.230;2023-09-12T12:56:39;17.30;;;15.23;;
45764;SDS011;31474;45.332;10.230;2023-09-12T12:59:06;25.42;;;15.25;;
45764;SDS011;31474;45.332;10.230;2023-09-12T13:01:37;18.33;;;16.10;;
45764;SDS011;31474;45.332;10.230;2023-09-12T13:04:07;16.75;;;14.68;;
45764;SDS011;31474;45.332;10.230;2023-09-12T13:06:33;17.88;;;14.02;;
45764;SDS011;31474;45.332;10.230;2023-09-12T13:09:00;15.70;;;13.23;;
45764;SDS011;31474;45.332;10.230;2023-09-12T13:11:29;15.35;;;12.80;;
45764;SDS011;31474;45.332;10.230;2023-09-12T13:13:55;20.15;;;13.95;;
45764;SDS011;31474;45.332;10.230;2023-09-12T13:16:21;17.00;;;13.35;;
45764;SDS011;31474;45.332;10.230;2023-09-12T13:18:47;17.15;;;13.52;;
45764;SDS011;31474;45.332;10.230;2023-09-12T13:21:13;15.93;;;12.27;;
45764;SDS011;31474;45.332;10.230;2023-09-12T13:23:38;15.07;;;11.93;;
45764;SDS011;31474;45.332;10.230;2023-09-12T13:26:05;12.95;;;11.55;;
45764;SDS011;31474;45.332;10.230;2023-09-12T13:28:32;15.45;;;11.60;;
45764;SDS011;31474;45.332;10.230;2023-09-12T13:30:58;12.57;;;11.27;;
45764;SDS011;31474;45.332;10.230;2023-09-12T13:33:23;15.30;;;12.15;;
45764;SDS011;31474;45.332;10.230;2023-09-12T13:35:49;12.55;;;11.13;;
45764;SDS011;31474;45.332;10.230;2023-09-12T13:38:16;23.13;;;12.20;;
45764;SDS011;31474;45.332;10.230;2023-09-12T13:40:44;22.60;;;11.13;;
45764;SDS011;31474;45.332;10.230;2023-09-12T13:43:10;16.35;;;10.23;;
45764;SDS011;31474;45.332;10.230;2023-09-12T13:45:36;13.75;;;11.45;;
45764;SDS011;31474;45.332;10.230;2023-09-12T13:48:02;15.27;;;10.68;;
45764;SDS011;31474;45.332;10.230;2023-09-12T13:50:29;13.05;;;11.63;;
45764;SDS011;31474;45.332;10.230;2023-09-12T13:52:59;19.75;;;12.18;;
45764;SDS011;31474;45.332;10.230;2023-09-12T13:55:29;21.80;;;11.35;;
45764;SDS011;31474;45.332;10.230;2023-09-12T13:57:55;20.90;;;13.02;;
45764;SDS011;31474;45.332;10.230;2023-09-12T14:00:20;19.50;;;13.45;;
45764;SDS011;31474;45.332;10.230;2023-09-12T14:02:46;16.75;;;12.70;;
45764;SDS011;31474;45.332;10.230;2023-09-12T14:05:12;14.50;;;12.85;;
45764;SDS011;31474;45.332;10.230;2023-09-12T14:07:37;15.18;;;13.13;;
45764;SDS011;31474;45.332;10.230;2023-09-12T14:10:05;23.52;;;13.27;;
45764;SDS011;31474;45.332;10.230;2023-09-12T14:12:32;17.85;;;12.95;;
45764;SDS011;31474;45.332;10.230;2023-09-12T14:14:57;15.10;;;13.55;;
45764;SDS011;31474;45.332;10.230;2023-09-12T14:17:23;17.23;;;11.63;;
45764;SDS011;31474;45.332;10.230;2023-09-12T14:19:48;15.45;;;13.07;;
45764;SDS011;31474;45.332;10.230;2023-09-12T14:22:14;22.10;;;12.25;;
45764;SDS011;31474;45.332;10.230;2023-09-12T14:24:40;13.65;;;12.13;;
45764;SDS011;31474;45.332;10.230;2023-09-12T14:27:06;15.23;;;13.02;;
45764;SDS011;31474;45.332;10.230;2023-09-12T14:29:31;16.90;;;12.70;;
45764;SDS011;31474;45.332;10.230;2023-09-12T14:31:57;17.52;;;13.07;;
45764;SDS011;31474;45.332;10.230;2023-09-12T14:34:26;18.75;;;11.20;;